sensor_id;sensor_type;location;lat;lon;timestamp;pressure;altitude;pressure_sealevel;temperature;humidity
66880;BME280;53789;51.392;10.234;2022-11-25T00:00:05;98076.31;;;2.36;83.09
66880;BME280;53789;51.392;10.234;2022-11-25T00:00:25;98072.78;;;2.36;82.25
66880;BME280;53789;51.392;10.234;2022-11-25T00:00:46;98079.84;;;2.37;82.48
66880;BME280;53789;51.392;10.234;2022-11-25T00:01:30;98073.59;;;2.36;82.67
66880;BME280;53789;51.392;10.234;2022-11-25T00:01:50;98078.19;;;2.36;83.15
66880;BME280;53789;51.392;10.234;2022-11-25T00:02:11;98077.38;;;2.35;83.47
66880;BME280;53789;51.392;10.234;2022-11-25T00:02:31;98075.47;;;2.36;83.45
66880;BME280;53789;51.392;10.234;2022-11-25T00:02:51;98081.16;;;2.34;83.13
66880;BME280;53789;51.392;10.234;2022-11-25T00:03:12;98074.66;;;2.35;82.97
66880;BME280;53789;51.392;10.234;2022-11-25T00:03:32;98071.97;;;2.35;83.79
66880;BME280;53789;51.392;10.234;2022-11-25T00:03:55;98076.56;;;2.34;83.15
66880;BME280;53789;51.392;10.234;2022-11-25T00:04:15;98078.19;;;2.36;83.29
66880;BME280;53789;51.392;10.234;2022-11-25T00:04:35;98078.44;;;2.34;83.58
66880;BME280;53789;51.392;10.234;2022-11-25T00:04:56;98074.09;;;2.33;82.87
66880;BME280;53789;51.392;10.234;2022-11-25T00:05:16;98077.66;;;2.33;83.33
66880;BME280;53789;51.392;10.234;2022-11-25T00:05:36;98072.22;;;2.33;83.93
66880;BME280;53789;51.392;10.234;2022-11-25T00:06:01;98067.84;;;2.32;83.13
66880;BME280;53789;51.392;10.234;2022-11-25T00:06:28;98071.38;;;2.33;83.20
66880;BME280;53789;51.392;10.234;2022-11-25T00:06:49;98076.81;;;2.33;83.57
66880;BME280;53789;51.392;10.234;2022-11-25T00:07:09;98080.63;;;2.32;83.21
66880;BME280;53789;51.392;10.234;2022-11-25T00:07:29;98076.25;;;2.31;83.28
66880;BME280;53789;51.392;10.234;2022-11-25T00:07:50;98070.81;;;2.31;83.42
66880;BME280;53789;51.392;10.234;2022-11-25T00:08:10;98072.72;;;2.30;83.08
66880;BME280;53789;51.392;10.234;2022-11-25T00:08:30;98075.44;;;2.30;83.53
66880;BME280;53789;51.392;10.234;2022-11-25T00:08:57;98070.28;;;2.29;83.29
66880;BME280;53789;51.392;10.234;2022-11-25T00:09:18;98074.88;;;2.28;83.33
66880;BME280;53789;51.392;10.234;2022-11-25T00:09:38;98072.16;;;2.28;83.33
66880;BME280;53789;51.392;10.234;2022-11-25T00:09:59;98069.69;;;2.27;83.71
66880;BME280;53789;51.392;10.234;2022-11-25T00:10:19;98070.53;;;2.27;82.53
66880;BME280;53789;51.392;10.234;2022-11-25T00:10:39;98077.56;;;2.28;83.86
66880;BME280;53789;51.392;10.234;2022-11-25T00:11:00;98073.25;;;2.27;83.95
66880;BME280;53789;51.392;10.234;2022-11-25T00:11:21;98068.88;;;2.26;83.49
66880;BME280;53789;51.392;10.234;2022-11-25T00:11:42;98073.25;;;2.27;83.24
66880;BME280;53789;51.392;10.234;2022-11-25T00:12:02;98072.16;;;2.28;83.40
66880;BME280;53789;51.392;10.234;2022-11-25T00:12:22;98080.28;;;2.28;82.42
66880;BME280;53789;51.392;10.234;2022-11-25T00:12:43;98075.13;;;2.27;83.11
66880;BME280;53789;51.392;10.234;2022-11-25T00:13:03;98072.66;;;2.25;83.03
66880;BME280;53789;51.392;10.234;2022-11-25T00:13:23;98070.78;;;2.26;82.46
66880;BME280;53789;51.392;10.234;2022-11-25T00:13:45;98075.38;;;2.25;83.49
66880;BME280;53789;51.392;10.234;2022-11-25T00:14:06;98074.81;;;2.23;83.14
66880;BME280;53789;51.392;10.234;2022-11-25T00:14:27;98075.91;;;2.22;82.81
66880;BME280;53789;51.392;10.234;2022-11-25T00:14:47;98076.97;;;2.21;82.86
66880;BME280;53789;51.392;10.234;2022-11-25T00:15:08;98066.38;;;2.20;82.69
66880;BME280;53789;51.392;10.234;2022-11-25T00:15:28;98076.41;;;2.19;83.14
66880;BME280;53789;51.392;10.234;2022-11-25T00:15:48;98079.13;;;2.19;83.13
66880;BME280;53789;51.392;10.234;2022-11-25T00:16:12;98078.56;;;2.17;83.12
66880;BME280;53789;51.392;10.234;2022-11-25T00:16:32;98079.38;;;2.17;83.52
66880;BME280;53789;51.392;10.234;2022-11-25T00:16:53;98078.56;;;2.17;83.02
66880;BME280;53789;51.392;10.234;2022-11-25T00:17:13;98079.63;;;2.16;83.05
66880;BME280;53789;51.392;10.234;2022-11-25T00:17:33;98074.22;;;2.16;84.07
66880;BME280;53789;51.392;10.234;2022-11-25T00:17:53;98073.41;;;2.15;84.19
66880;BME280;53789;51.392;10.234;2022-11-25T00:18:14;98078.00;;;2.15;84.09
66880;BME280;53789;51.392;10.234;2022-11-25T00:18:35;98078.00;;;2.15;83.85
66880;BME280;53789;51.392;10.234;2022-11-25T00:18:57;98073.16;;;2.17;83.60
66880;BME280;53789;51.392;10.234;2022-11-25T00:19:17;98081.28;;;2.17;84.14
66880;BME280;53789;51.392;10.234;2022-11-25T00:19:38;98082.91;;;2.18;83.85
66880;BME280;53789;51.392;10.234;2022-11-25T00:19:58;98079.94;;;2.20;83.64
66880;BME280;53789;51.392;10.234;2022-11-25T00:20:19;98080.78;;;2.20;83.94
66880;BME280;53789;51.392;10.234;2022-11-25T00:20:39;98080.78;;;2.20;84.32
66880;BME280;53789;51.392;10.234;2022-11-25T00:21:05;98084.84;;;2.23;84.39
66880;BME280;53789;51.392;10.234;2022-11-25T00:21:30;98080.25;;;2.23;84.74
66880;BME280;53789;51.392;10.234;2022-11-25T00:21:51;98077.28;;;2.25;84.73
66880;BME280;53789;51.392;10.234;2022-11-25T00:22:11;98078.09;;;2.25;84.27
66880;BME280;53789;51.392;10.234;2022-11-25T00:22:31;98079.75;;;2.26;83.74
66880;BME280;53789;51.392;10.234;2022-11-25T00:22:52;98073.25;;;2.27;84.42
66880;BME280;53789;51.392;10.234;2022-11-25T00:23:12;98074.88;;;2.28;83.68
66880;BME280;53789;51.392;10.234;2022-11-25T00:23:32;98076.50;;;2.29;84.01
66880;BME280;53789;51.392;10.234;2022-11-25T00:24:00;98074.59;;;2.30;84.01
66880;BME280;53789;51.392;10.234;2022-11-25T00:24:21;98075.69;;;2.29;83.25
66880;BME280;53789;51.392;10.234;2022-11-25T00:24:41;98079.22;;;2.29;83.29
66880;BME280;53789;51.392;10.234;2022-11-25T00:25:02;98076.25;;;2.31;82.60
66880;BME280;53789;51.392;10.234;2022-11-25T00:25:22;98071.91;;;2.30;83.06
66880;BME280;53789;51.392;10.234;2022-11-25T00:25:43;98072.16;;;2.28;83.78
66880;BME280;53789;51.392;10.234;2022-11-25T00:26:15;98073.25;;;2.27;83.10
66880;BME280;53789;51.392;10.234;2022-11-25T00:26:35;98075.97;;;2.27;82.66
66880;BME280;53789;51.392;10.234;2022-11-25T00:26:56;98077.03;;;2.26;82.37
66880;BME280;53789;51.392;10.234;2022-11-25T00:27:16;98071.59;;;2.26;82.71
66880;BME280;53789;51.392;10.234;2022-11-25T00:27:36;98069.97;;;2.25;82.58
66880;BME280;53789;51.392;10.234;2022-11-25T00:27:57;98071.84;;;2.25;82.83
66880;BME280;53789;51.392;10.234;2022-11-25T00:28:17;98076.47;;;2.24;82.87
66880;BME280;53789;51.392;10.234;2022-11-25T00:28:39;98068.34;;;2.24;83.20
66880;BME280;53789;51.392;10.234;2022-11-25T00:29:02;98072.13;;;2.23;82.54
66880;BME280;53789;51.392;10.234;2022-11-25T00:29:23;98086.75;;;2.22;82.57
66880;BME280;53789;51.392;10.234;2022-11-25T00:29:43;98079.41;;;2.23;82.86
66880;BME280;53789;51.392;10.234;2022-11-25T00:30:05;98081.84;;;2.19;82.46
66880;BME280;53789;51.392;10.234;2022-11-25T00:30:25;98079.13;;;2.19;83.54
66880;BME280;53789;51.392;10.234;2022-11-25T00:30:45;98078.56;;;2.17;83.55
66880;BME280;53789;51.392;10.234;2022-11-25T00:31:07;98082.09;;;2.17;83.62
66880;BME280;53789;51.392;10.234;2022-11-25T00:31:33;98077.47;;;2.18;83.77
66880;BME280;53789;51.392;10.234;2022-11-25T00:31:54;98072.31;;;2.16;83.70
66880;BME280;53789;51.392;10.234;2022-11-25T00:32:15;98070.44;;;2.17;83.71
66880;BME280;53789;51.392;10.234;2022-11-25T00:32:35;98079.38;;;2.17;83.75
66880;BME280;53789;51.392;10.234;2022-11-25T00:32:55;98069.59;;;2.16;83.38
66880;BME280;53789;51.392;10.234;2022-11-25T00:33:15;98067.97;;;2.15;83.23
66880;BME280;53789;51.392;10.234;2022-11-25T00:33:37;98072.31;;;2.16;83.11
66880;BME280;53789;51.392;10.234;2022-11-25T00:33:57;98076.94;;;2.16;83.45
66880;BME280;53789;51.392;10.234;2022-11-25T00:34:18;98071.50;;;2.16;83.42
66880;BME280;53789;51.392;10.234;2022-11-25T00:34:38;98074.22;;;2.16;83.65
66880;BME280;53789;51.392;10.234;2022-11-25T00:34:58;98063.34;;;2.16;84.22
66880;BME280;53789;51.392;10.234;2022-11-25T00:35:19;98066.88;;;2.16;83.76
66880;BME280;53789;51.392;10.234;2022-11-25T00:35:39;98067.72;;;2.17;84.09
66880;BME280;53789;51.392;10.234;2022-11-25T00:36:01;98069.59;;;2.16;83.71
66880;BME280;53789;51.392;10.234;2022-11-25T00:36:45;98064.16;;;2.16;84.30
66880;BME280;53789;51.392;10.234;2022-11-25T00:37:06;98075.84;;;2.17;83.87
66880;BME280;53789;51.392;10.234;2022-11-25T00:37:26;98067.97;;;2.15;83.15
66880;BME280;53789;51.392;10.234;2022-11-25T00:37:46;98065.00;;;2.17;83.41
66880;BME280;53789;51.392;10.234;2022-11-25T00:38:07;98070.44;;;2.17;83.68
66880;BME280;53789;51.392;10.234;2022-11-25T00:38:27;98070.44;;;2.17;84.42
66880;BME280;53789;51.392;10.234;2022-11-25T00:38:56;98064.16;;;2.16;84.59
66880;BME280;53789;51.392;10.234;2022-11-25T00:39:16;98061.19;;;2.18;83.70
66880;BME280;53789;51.392;10.234;2022-11-25T00:39:37;98056.88;;;2.17;84.08
66880;BME280;53789;51.392;10.234;2022-11-25T00:39:57;98058.75;;;2.16;84.08
66880;BME280;53789;51.392;10.234;2022-11-25T00:40:17;98061.19;;;2.18;84.66
66880;BME280;53789;51.392;10.234;2022-11-25T00:40:37;98064.75;;;2.19;83.67
66880;BME280;53789;51.392;10.234;2022-11-25T00:40:58;98064.50;;;2.20;84.61
66880;BME280;53789;51.392;10.234;2022-11-25T00:41:18;98061.78;;;2.20;83.49
66880;BME280;53789;51.392;10.234;2022-11-25T00:41:39;98062.59;;;2.21;84.13
66880;BME280;53789;51.392;10.234;2022-11-25T00:41:59;98063.38;;;2.21;84.11
66880;BME280;53789;51.392;10.234;2022-11-25T00:42:20;98066.09;;;2.21;83.94
66880;BME280;53789;51.392;10.234;2022-11-25T00:42:40;98060.69;;;2.21;83.78
66880;BME280;53789;51.392;10.234;2022-11-25T00:43:00;98064.22;;;2.22;83.72
66880;BME280;53789;51.392;10.234;2022-11-25T00:43:20;98060.69;;;2.21;83.77
66880;BME280;53789;51.392;10.234;2022-11-25T00:43:41;98056.91;;;2.22;83.51
66880;BME280;53789;51.392;10.234;2022-11-25T00:44:01;98056.91;;;2.22;83.85
66880;BME280;53789;51.392;10.234;2022-11-25T00:44:21;98059.63;;;2.22;83.75
66880;BME280;53789;51.392;10.234;2022-11-25T00:44:42;98063.13;;;2.23;83.20
66880;BME280;53789;51.392;10.234;2022-11-25T00:45:02;98059.34;;;2.24;83.77
66880;BME280;53789;51.392;10.234;2022-11-25T00:45:23;98061.25;;;2.23;83.72
66880;BME280;53789;51.392;10.234;2022-11-25T00:45:43;98056.91;;;2.22;83.12
66880;BME280;53789;51.392;10.234;2022-11-25T00:46:03;98065.03;;;2.22;83.36
66880;BME280;53789;51.392;10.234;2022-11-25T00:46:24;98070.47;;;2.22;82.62
66880;BME280;53789;51.392;10.234;2022-11-25T00:46:44;98060.69;;;2.21;83.24
66880;BME280;53789;51.392;10.234;2022-11-25T00:47:24;98058.81;;;2.22;83.21
66880;BME280;53789;51.392;10.234;2022-11-25T00:47:44;98060.13;;;2.19;83.31
66880;BME280;53789;51.392;10.234;2022-11-25T00:48:05;98061.78;;;2.20;82.98
66880;BME280;53789;51.392;10.234;2022-11-25T00:48:25;98057.16;;;2.21;83.14
66880;BME280;53789;51.392;10.234;2022-11-25T00:48:45;98062.84;;;2.19;83.22
66880;BME280;53789;51.392;10.234;2022-11-25T00:49:06;98066.63;;;2.18;83.13
66880;BME280;53789;51.392;10.234;2022-11-25T00:49:26;98055.78;;;2.18;82.82
66880;BME280;53789;51.392;10.234;2022-11-25T00:49:50;98059.56;;;2.17;82.85
66880;BME280;53789;51.392;10.234;2022-11-25T00:50:10;98065.81;;;2.17;82.95
66880;BME280;53789;51.392;10.234;2022-11-25T00:50:30;98061.19;;;2.18;82.70
66880;BME280;53789;51.392;10.234;2022-11-25T00:50:51;98060.38;;;2.17;82.80
66880;BME280;53789;51.392;10.234;2022-11-25T00:51:11;98063.09;;;2.17;83.88
66880;BME280;53789;51.392;10.234;2022-11-25T00:51:32;98058.47;;;2.18;83.91
66880;BME280;53789;51.392;10.234;2022-11-25T00:51:53;98061.19;;;2.18;83.59
66880;BME280;53789;51.392;10.234;2022-11-25T00:52:16;98061.19;;;2.18;83.33
66880;BME280;53789;51.392;10.234;2022-11-25T00:52:36;98059.31;;;2.19;84.20
66880;BME280;53789;51.392;10.234;2022-11-25T00:52:58;98062.84;;;2.19;83.68
66880;BME280;53789;51.392;10.234;2022-11-25T00:53:18;98062.84;;;2.19;83.84
66880;BME280;53789;51.392;10.234;2022-11-25T00:53:38;98063.66;;;2.20;84.07
66880;BME280;53789;51.392;10.234;2022-11-25T00:53:59;98058.47;;;2.18;83.89
66880;BME280;53789;51.392;10.234;2022-11-25T00:54:19;98056.59;;;2.19;83.15
66880;BME280;53789;51.392;10.234;2022-11-25T00:54:39;98059.06;;;2.20;83.56
66880;BME280;53789;51.392;10.234;2022-11-25T00:54:59;98063.66;;;2.20;83.17
66880;BME280;53789;51.392;10.234;2022-11-25T00:55:20;98060.94;;;2.20;83.08
66880;BME280;53789;51.392;10.234;2022-11-25T00:55:40;98058.22;;;2.20;83.56
66880;BME280;53789;51.392;10.234;2022-11-25T00:56:01;98068.28;;;2.19;83.19
66880;BME280;53789;51.392;10.234;2022-11-25T00:56:21;98056.59;;;2.19;82.79
66880;BME280;53789;51.392;10.234;2022-11-25T00:56:41;98060.38;;;2.17;83.23
66880;BME280;53789;51.392;10.234;2022-11-25T00:57:02;98058.47;;;2.18;83.38
66880;BME280;53789;51.392;10.234;2022-11-25T00:57:23;98054.97;;;2.17;83.30
66880;BME280;53789;51.392;10.234;2022-11-25T00:57:43;98057.41;;;2.19;83.76
66880;BME280;53789;51.392;10.234;2022-11-25T00:58:03;98060.94;;;2.20;83.79
66880;BME280;53789;51.392;10.234;2022-11-25T00:58:24;98065.28;;;2.21;82.91
66880;BME280;53789;51.392;10.234;2022-11-25T00:58:44;98061.78;;;2.20;83.35
66880;BME280;53789;51.392;10.234;2022-11-25T00:59:04;98064.50;;;2.20;82.77
66880;BME280;53789;51.392;10.234;2022-11-25T00:59:25;98062.84;;;2.19;83.13
66880;BME280;53789;51.392;10.234;2022-11-25T00:59:46;98057.97;;;2.21;82.38
66880;BME280;53789;51.392;10.234;2022-11-25T01:00:08;98060.13;;;2.19;82.92
66880;BME280;53789;51.392;10.234;2022-11-25T01:00:29;98062.84;;;2.19;82.62
66880;BME280;53789;51.392;10.234;2022-11-25T01:00:49;98059.31;;;2.19;82.32
66880;BME280;53789;51.392;10.234;2022-11-25T01:01:10;98058.75;;;2.16;82.83
66880;BME280;53789;51.392;10.234;2022-11-25T01:01:31;98059.56;;;2.17;83.44
66880;BME280;53789;51.392;10.234;2022-11-25T01:01:52;98062.28;;;2.17;82.97
66880;BME280;53789;51.392;10.234;2022-11-25T01:02:14;98059.00;;;2.15;82.51
66880;BME280;53789;51.392;10.234;2022-11-25T01:02:35;98067.97;;;2.15;82.88
66880;BME280;53789;51.392;10.234;2022-11-25T01:02:55;98066.31;;;2.14;83.07
66880;BME280;53789;51.392;10.234;2022-11-25T01:03:15;98063.06;;;2.12;83.32
66880;BME280;53789;51.392;10.234;2022-11-25T01:03:36;98074.97;;;2.11;83.58
66880;BME280;53789;51.392;10.234;2022-11-25T01:03:56;98063.88;;;2.13;83.23
66880;BME280;53789;51.392;10.234;2022-11-25T01:04:17;98068.50;;;2.12;83.50
66880;BME280;53789;51.392;10.234;2022-11-25T01:04:37;98067.66;;;2.12;83.06
66880;BME280;53789;51.392;10.234;2022-11-25T01:04:57;98066.84;;;2.11;83.11
66880;BME280;53789;51.392;10.234;2022-11-25T01:05:18;98067.41;;;2.13;82.45
66880;BME280;53789;51.392;10.234;2022-11-25T01:05:38;98073.06;;;2.12;83.26
66880;BME280;53789;51.392;10.234;2022-11-25T01:06:08;98068.72;;;2.11;83.07
66880;BME280;53789;51.392;10.234;2022-11-25T01:06:29;98066.00;;;2.11;83.07
66880;BME280;53789;51.392;10.234;2022-11-25T01:06:49;98061.66;;;2.10;83.11
66880;BME280;53789;51.392;10.234;2022-11-25T01:07:10;98062.22;;;2.12;82.92
66880;BME280;53789;51.392;10.234;2022-11-25T01:07:30;98067.66;;;2.12;83.77
66880;BME280;53789;51.392;10.234;2022-11-25T01:07:50;98056.78;;;2.12;83.54
66880;BME280;53789;51.392;10.234;2022-11-25T01:08:11;98066.84;;;2.11;83.91
66880;BME280;53789;51.392;10.234;2022-11-25T01:08:33;98062.47;;;2.10;84.11
66880;BME280;53789;51.392;10.234;2022-11-25T01:08:54;98066.00;;;2.11;83.80
66880;BME280;53789;51.392;10.234;2022-11-25T01:09:14;98064.38;;;2.10;83.18
66880;BME280;53789;51.392;10.234;2022-11-25T01:09:35;98052.69;;;2.09;82.94
66880;BME280;53789;51.392;10.234;2022-11-25T01:09:55;98060.28;;;2.07;83.71
66880;BME280;53789;51.392;10.234;2022-11-25T01:10:15;98059.47;;;2.07;83.42
66880;BME280;53789;51.392;10.234;2022-11-25T01:10:36;98063.25;;;2.06;83.33
66880;BME280;53789;51.392;10.234;2022-11-25T01:11:07;98064.91;;;2.07;83.75
66880;BME280;53789;51.392;10.234;2022-11-25T01:11:29;98064.91;;;2.07;83.45
66880;BME280;53789;51.392;10.234;2022-11-25T01:11:49;98056.75;;;2.07;83.53
66880;BME280;53789;51.392;10.234;2022-11-25T01:12:10;98058.38;;;2.08;83.95
66880;BME280;53789;51.392;10.234;2022-11-25T01:12:30;98069.22;;;2.08;83.62
66880;BME280;53789;51.392;10.234;2022-11-25T01:12:51;98065.72;;;2.07;83.58
66880;BME280;53789;51.392;10.234;2022-11-25T01:13:11;98071.13;;;2.07;83.58
66880;BME280;53789;51.392;10.234;2022-11-25T01:13:32;98071.94;;;2.08;83.82
66880;BME280;53789;51.392;10.234;2022-11-25T01:13:54;98071.69;;;2.09;83.86
66880;BME280;53789;51.392;10.234;2022-11-25T01:14:14;98062.75;;;2.09;83.66
66880;BME280;53789;51.392;10.234;2022-11-25T01:14:35;98068.16;;;2.09;83.43
66880;BME280;53789;51.392;10.234;2022-11-25T01:14:55;98068.97;;;2.09;84.31
66880;BME280;53789;51.392;10.234;2022-11-25T01:15:15;98067.09;;;2.10;84.22
66880;BME280;53789;51.392;10.234;2022-11-25T01:15:36;98072.53;;;2.10;83.21
66880;BME280;53789;51.392;10.234;2022-11-25T01:16:00;98069.81;;;2.10;83.01
66880;BME280;53789;51.392;10.234;2022-11-25T01:16:21;98070.88;;;2.09;83.35
66880;BME280;53789;51.392;10.234;2022-11-25T01:16:41;98062.19;;;2.07;82.90
66880;BME280;53789;51.392;10.234;2022-11-25T01:17:02;98068.41;;;2.07;82.83
66880;BME280;53789;51.392;10.234;2022-11-25T01:17:22;98070.88;;;2.09;82.89
66880;BME280;53789;51.392;10.234;2022-11-25T01:17:42;98067.63;;;2.07;83.42
66880;BME280;53789;51.392;10.234;2022-11-25T01:18:03;98064.91;;;2.07;83.95
66880;BME280;53789;51.392;10.234;2022-11-25T01:18:23;98063.00;;;2.07;83.77
66880;BME280;53789;51.392;10.234;2022-11-25T01:18:44;98066.50;;;2.08;83.30
66880;BME280;53789;51.392;10.234;2022-11-25T01:19:04;98067.63;;;2.07;83.85
66880;BME280;53789;51.392;10.234;2022-11-25T01:19:25;98074.09;;;2.06;83.55
66880;BME280;53789;51.392;10.234;2022-11-25T01:19:46;98070.59;;;2.05;83.68
66880;BME280;53789;51.392;10.234;2022-11-25T01:20:07;98067.88;;;2.05;83.75
66880;BME280;53789;51.392;10.234;2022-11-25T01:20:27;98072.44;;;2.05;83.47
66880;BME280;53789;51.392;10.234;2022-11-25T01:20:47;98066.22;;;2.04;83.49
66880;BME280;53789;51.392;10.234;2022-11-25T01:21:20;98063.75;;;2.03;83.12
66880;BME280;53789;51.392;10.234;2022-11-25T01:21:41;98064.56;;;2.03;84.07
66880;BME280;53789;51.392;10.234;2022-11-25T01:22:01;98066.47;;;2.03;83.73
66880;BME280;53789;51.392;10.234;2022-11-25T01:22:21;98069.19;;;2.03;83.80
66880;BME280;53789;51.392;10.234;2022-11-25T01:22:42;98063.75;;;2.03;83.67
66880;BME280;53789;51.392;10.234;2022-11-25T01:23:02;98064.56;;;2.03;83.24
66880;BME280;53789;51.392;10.234;2022-11-25T01:23:22;98064.56;;;2.03;83.26
66880;BME280;53789;51.392;10.234;2022-11-25T01:23:43;98059.97;;;2.04;83.55
66880;BME280;53789;51.392;10.234;2022-11-25T01:24:06;98067.88;;;2.05;83.76
66880;BME280;53789;51.392;10.234;2022-11-25T01:24:26;98067.88;;;2.05;84.32
66880;BME280;53789;51.392;10.234;2022-11-25T01:24:46;98068.69;;;2.06;83.85
66880;BME280;53789;51.392;10.234;2022-11-25T01:25:07;98064.06;;;2.06;84.13
66880;BME280;53789;51.392;10.234;2022-11-25T01:25:27;98066.50;;;2.08;83.62
66880;BME280;53789;51.392;10.234;2022-11-25T01:25:47;98071.13;;;2.07;84.33
66880;BME280;53789;51.392;10.234;2022-11-25T01:26:13;98070.63;;;2.10;84.28
66880;BME280;53789;51.392;10.234;2022-11-25T01:26:35;98072.28;;;2.11;84.40
66880;BME280;53789;51.392;10.234;2022-11-25T01:26:55;98066.84;;;2.11;84.69
66880;BME280;53789;51.392;10.234;2022-11-25T01:27:15;98067.41;;;2.13;84.50
66880;BME280;53789;51.392;10.234;2022-11-25T01:27:36;98073.66;;;2.14;84.28
66880;BME280;53789;51.392;10.234;2022-11-25T01:27:56;98069.84;;;2.15;84.01
66880;BME280;53789;51.392;10.234;2022-11-25T01:28:16;98069.84;;;2.15;84.63
66880;BME280;53789;51.392;10.234;2022-11-25T01:28:37;98074.22;;;2.16;84.66
66880;BME280;53789;51.392;10.234;2022-11-25T01:29:00;98069.84;;;2.15;84.87
66880;BME280;53789;51.392;10.234;2022-11-25T01:29:21;98071.75;;;2.14;84.70
66880;BME280;53789;51.392;10.234;2022-11-25T01:29:42;98071.50;;;2.16;84.72
66880;BME280;53789;51.392;10.234;2022-11-25T01:30:02;98074.22;;;2.16;85.24
66880;BME280;53789;51.392;10.234;2022-11-25T01:30:23;98073.16;;;2.17;84.65
66880;BME280;53789;51.392;10.234;2022-11-25T01:30:43;98073.16;;;2.17;84.74
66880;BME280;53789;51.392;10.234;2022-11-25T01:31:11;98065.81;;;2.17;84.88
66880;BME280;53789;51.392;10.234;2022-11-25T01:31:34;98063.91;;;2.18;84.84
66880;BME280;53789;51.392;10.234;2022-11-25T01:31:55;98065.56;;;2.19;85.61
66880;BME280;53789;51.392;10.234;2022-11-25T01:32:15;98076.16;;;2.21;85.75
66880;BME280;53789;51.392;10.234;2022-11-25T01:32:35;98067.75;;;2.22;85.36
66880;BME280;53789;51.392;10.234;2022-11-25T01:32:56;98067.75;;;2.22;85.47
66880;BME280;53789;51.392;10.234;2022-11-25T01:33:16;98067.50;;;2.24;85.33
66880;BME280;53789;51.392;10.234;2022-11-25T01:33:37;98070.22;;;2.24;85.44
66880;BME280;53789;51.392;10.234;2022-11-25T01:34:00;98072.66;;;2.25;85.37
66880;BME280;53789;51.392;10.234;2022-11-25T01:34:23;98075.97;;;2.27;85.52
66880;BME280;53789;51.392;10.234;2022-11-25T01:34:43;98059.94;;;2.26;85.62
66880;BME280;53789;51.392;10.234;2022-11-25T01:35:04;98069.69;;;2.27;85.62
66880;BME280;53789;51.392;10.234;2022-11-25T01:35:25;98071.34;;;2.28;84.78
66880;BME280;53789;51.392;10.234;2022-11-25T01:35:45;98068.63;;;2.28;85.47
66880;BME280;53789;51.392;10.234;2022-11-25T01:36:09;98071.09;;;2.29;84.97
66880;BME280;53789;51.392;10.234;2022-11-25T01:36:29;98070.81;;;2.31;84.74
66880;BME280;53789;51.392;10.234;2022-11-25T01:36:50;98071.63;;;2.31;84.86
66880;BME280;53789;51.392;10.234;2022-11-25T01:37:10;98074.34;;;2.31;85.09
66880;BME280;53789;51.392;10.234;2022-11-25T01:37:30;98067.84;;;2.32;84.96
66880;BME280;53789;51.392;10.234;2022-11-25T01:37:51;98069.50;;;2.33;85.04
66880;BME280;53789;51.392;10.234;2022-11-25T01:38:11;98063.81;;;2.35;84.92
66880;BME280;53789;51.392;10.234;2022-11-25T01:38:32;98071.97;;;2.35;84.90
66880;BME280;53789;51.392;10.234;2022-11-25T01:38:56;98062.97;;;2.34;84.36
66880;BME280;53789;51.392;10.234;2022-11-25T01:39:19;98068.41;;;2.34;84.89
66880;BME280;53789;51.392;10.234;2022-11-25T01:39:40;98062.16;;;2.34;85.20
66880;BME280;53789;51.392;10.234;2022-11-25T01:40:00;98070.06;;;2.36;85.40
66880;BME280;53789;51.392;10.234;2022-11-25T01:40:20;98065.69;;;2.34;84.61
66880;BME280;53789;51.392;10.234;2022-11-25T01:40:41;98065.69;;;2.34;85.19
66880;BME280;53789;51.392;10.234;2022-11-25T01:41:02;98063.81;;;2.35;84.84
66880;BME280;53789;51.392;10.234;2022-11-25T01:41:25;98060.25;;;2.34;84.62
66880;BME280;53789;51.392;10.234;2022-11-25T01:41:47;98068.19;;;2.36;84.23
66880;BME280;53789;51.392;10.234;2022-11-25T01:42:07;98066.28;;;2.37;84.18
66880;BME280;53789;51.392;10.234;2022-11-25T01:42:30;98067.09;;;2.37;85.18
66880;BME280;53789;51.392;10.234;2022-11-25T01:42:50;98069.78;;;2.37;84.48
66880;BME280;53789;51.392;10.234;2022-11-25T01:43:13;98068.72;;;2.38;84.30
66880;BME280;53789;51.392;10.234;2022-11-25T01:43:34;98066.81;;;2.39;85.25
66880;BME280;53789;51.392;10.234;2022-11-25T01:44:19;98070.38;;;2.39;84.77
66880;BME280;53789;51.392;10.234;2022-11-25T01:44:40;98065.50;;;2.41;84.33
66880;BME280;53789;51.392;10.234;2022-11-25T01:45:43;98066.03;;;2.43;85.17
66880;BME280;53789;51.392;10.234;2022-11-25T01:46:24;98066.88;;;2.44;84.19
66880;BME280;53789;51.392;10.234;2022-11-25T01:47:04;98076.66;;;2.45;85.21
66880;BME280;53789;51.392;10.234;2022-11-25T01:47:29;98071.78;;;2.47;84.92
66880;BME280;53789;51.392;10.234;2022-11-25T01:47:55;98070.16;;;2.46;84.81
66880;BME280;53789;51.392;10.234;2022-11-25T01:48:47;98072.88;;;2.46;84.74
66880;BME280;53789;51.392;10.234;2022-11-25T01:49:09;98069.59;;;2.44;84.69
66880;BME280;53789;51.392;10.234;2022-11-25T01:50:08;98069.34;;;2.45;84.48
66880;BME280;53789;51.392;10.234;2022-11-25T01:50:32;98071.22;;;2.45;84.10
66880;BME280;53789;51.392;10.234;2022-11-25T01:50:54;98072.88;;;2.46;83.58
66880;BME280;53789;51.392;10.234;2022-11-25T01:51:56;98067.69;;;2.44;84.13
66880;BME280;53789;51.392;10.234;2022-11-25T01:52:31;98073.94;;;2.45;84.75
66880;BME280;53789;51.392;10.234;2022-11-25T01:52:54;98065.53;;;2.46;84.42
66880;BME280;53789;51.392;10.234;2022-11-25T01:53:18;98071.78;;;2.47;85.03
66880;BME280;53789;51.392;10.234;2022-11-25T01:53:39;98070.97;;;2.46;85.12
66880;BME280;53789;51.392;10.234;2022-11-25T01:54:03;98073.19;;;2.49;84.88
66880;BME280;53789;51.392;10.234;2022-11-25T01:54:28;98061.47;;;2.49;85.39
66880;BME280;53789;51.392;10.234;2022-11-25T01:54:59;98070.22;;;2.51;84.93
66880;BME280;53789;51.392;10.234;2022-11-25T01:55:26;98072.09;;;2.50;84.85
66880;BME280;53789;51.392;10.234;2022-11-25T01:55:54;98064.78;;;2.51;85.06
66880;BME280;53789;51.392;10.234;2022-11-25T01:56:16;98070.75;;;2.53;85.28
66880;BME280;53789;51.392;10.234;2022-11-25T01:56:45;98076.19;;;2.53;85.57
66880;BME280;53789;51.392;10.234;2022-11-25T01:57:16;98067.78;;;2.55;84.89